Terminal Aerodrome Forecast
Issued by NWS Louisville, KY

Home | Current Version | Previous Version | Text Only | Print | Product List | Glossary On
Versions: 1 2 3 4 5 6 7 8 9 10 11 12 13 14
000
FTUS43 KLMK 212300
TAFBWG
TAF
KBWG 212338Z 2200/2224 07004KT P6SM SCT050
     FM220200 11004KT P6SM OVC050
     FM221000 16004KT 5SM BR OVC025
     FM221700 17010KT P6SM BKN015 OVC025=

USA.gov is the U.S. government's official web portal to all federal, state and local government web resources and services.